createdAt,value
2018-07-24T00:00:32.206Z,20.30
2018-07-24T00:02:58.142Z,20.30
2018-07-24T00:05:24.870Z,20.30
2018-07-24T00:07:50.806Z,20.40
2018-07-24T00:10:17.493Z,20.30
2018-07-24T00:12:43.442Z,20.30
2018-07-24T00:15:09.447Z,20.30
2018-07-24T00:17:35.450Z,20.30
2018-07-24T00:20:01.396Z,20.20
2018-07-24T00:22:27.359Z,20.20
2018-07-24T00:24:53.315Z,20.20
2018-07-24T00:27:19.254Z,20.20
2018-07-24T00:29:45.179Z,20.10
2018-07-24T00:32:11.159Z,20.10
2018-07-24T00:34:37.099Z,20.10
2018-07-24T00:37:03.024Z,20.10
2018-07-24T00:39:28.978Z,20.10
2018-07-24T00:41:54.934Z,20.00
2018-07-24T00:44:21.663Z,20.00
2018-07-24T00:46:47.613Z,20.00
2018-07-24T00:49:14.294Z,19.90
2018-07-24T00:51:40.218Z,19.90
2018-07-24T00:54:06.232Z,19.90
2018-07-24T00:56:32.137Z,19.90
2018-07-24T00:58:58.070Z,19.90
2018-07-24T01:01:24.056Z,19.90
2018-07-24T01:03:50.724Z,19.90
2018-07-24T01:06:16.679Z,19.80
2018-07-24T01:08:42.623Z,19.80
2018-07-24T01:11:08.573Z,19.80
2018-07-24T01:13:34.497Z,19.70
2018-07-24T01:16:01.216Z,19.50
2018-07-24T01:18:27.913Z,19.40
2018-07-24T01:20:53.855Z,19.40
2018-07-24T01:23:19.800Z,19.40
2018-07-24T01:25:46.465Z,19.30
2018-07-24T01:28:13.174Z,19.30
2018-07-24T01:30:39.116Z,19.30
2018-07-24T01:33:05.810Z,19.20
2018-07-24T01:35:31.760Z,19.20
2018-07-24T01:37:57.728Z,19.20
2018-07-24T01:40:23.688Z,19.10
2018-07-24T01:42:49.683Z,19.10
2018-07-24T01:45:15.620Z,19.00
2018-07-24T01:47:41.577Z,19.00
2018-07-24T01:50:08.283Z,18.80
2018-07-24T01:52:34.969Z,18.80
2018-07-24T01:55:01.669Z,18.70
2018-07-24T01:57:27.602Z,18.60
2018-07-24T01:59:53.581Z,18.70
2018-07-24T02:02:19.503Z,18.60
2018-07-24T02:04:45.469Z,18.60
2018-07-24T02:07:11.415Z,18.50
2018-07-24T02:09:38.082Z,18.40
2018-07-24T02:12:04.030Z,18.40
2018-07-24T02:14:29.986Z,18.40
2018-07-24T02:16:55.942Z,18.30
2018-07-24T02:19:21.877Z,18.30
2018-07-24T02:21:47.869Z,18.20
2018-07-24T02:24:14.544Z,18.20
2018-07-24T02:26:40.479Z,18.20
2018-07-24T02:29:06.438Z,18.10
2018-07-24T02:31:33.126Z,18.10
2018-07-24T02:33:59.080Z,18.10
2018-07-24T02:36:25.026Z,18.10
2018-07-24T02:38:51.755Z,18.10
2018-07-24T02:41:17.704Z,18.10
2018-07-24T02:43:44.372Z,18.10
2018-07-24T02:46:10.348Z,18.10
2018-07-24T02:48:37.024Z,18.00
2018-07-24T02:51:02.974Z,18.10
2018-07-24T02:53:28.927Z,18.10
2018-07-24T02:55:55.504Z,18.10
2018-07-24T02:58:21.468Z,18.00
2018-07-24T03:00:47.415Z,18.00
2018-07-24T03:03:13.388Z,18.00
2018-07-24T03:05:39.310Z,18.00
2018-07-24T03:08:05.285Z,18.00
2018-07-24T03:10:31.222Z,18.00
2018-07-24T03:12:57.927Z,18.00
2018-07-24T03:15:23.878Z,18.00
2018-07-24T03:17:50.582Z,18.00
2018-07-24T03:20:16.555Z,18.00
2018-07-24T03:22:42.509Z,18.00
2018-07-24T03:25:08.456Z,17.90
2018-07-24T03:27:34.422Z,17.90
2018-07-24T03:30:01.098Z,17.90
2018-07-24T03:32:27.018Z,17.90
2018-07-24T03:34:52.979Z,17.80
2018-07-24T03:37:18.924Z,17.90
2018-07-24T03:39:45.654Z,17.90
2018-07-24T03:42:11.576Z,17.90
2018-07-24T03:44:38.288Z,17.90
2018-07-24T03:47:04.227Z,17.90
2018-07-24T03:49:30.159Z,17.90
2018-07-24T03:51:56.113Z,17.90
2018-07-24T03:54:22.064Z,17.80
2018-07-24T03:56:48.007Z,17.80
2018-07-24T03:59:13.937Z,17.90
2018-07-24T04:01:39.908Z,17.90
2018-07-24T04:04:05.866Z,17.90
2018-07-24T04:06:31.861Z,18.00
2018-07-24T04:08:57.804Z,18.10
2018-07-24T04:11:23.769Z,18.20
2018-07-24T04:13:50.477Z,18.20
2018-07-24T04:16:16.427Z,18.20
2018-07-24T04:18:43.123Z,18.30
2018-07-24T04:21:09.080Z,18.30
2018-07-24T04:23:35.038Z,18.30
2018-07-24T04:26:00.981Z,18.40
2018-07-24T04:28:26.944Z,18.50
2018-07-24T04:30:52.930Z,18.60
2018-07-24T04:33:18.897Z,18.70
2018-07-24T04:35:45.590Z,18.80
2018-07-24T04:38:11.540Z,18.80
2018-07-24T04:40:37.478Z,18.90
2018-07-24T04:43:03.395Z,18.90
2018-07-24T04:45:29.365Z,19.00
2018-07-24T04:47:55.311Z,19.00
2018-07-24T04:50:21.290Z,19.00
2018-07-24T04:52:47.235Z,19.10
2018-07-24T04:55:13.172Z,19.10
2018-07-24T04:57:39.115Z,19.20
2018-07-24T05:00:05.051Z,19.20
2018-07-24T05:02:31.057Z,19.30
2018-07-24T05:04:56.981Z,19.30
2018-07-24T05:07:22.938Z,19.30
2018-07-24T05:09:49.621Z,19.40
2018-07-24T05:12:15.577Z,19.40
2018-07-24T05:14:41.505Z,19.50
2018-07-24T05:17:07.475Z,19.60
2018-07-24T05:19:33.456Z,19.70
2018-07-24T05:22:00.149Z,19.90
2018-07-24T05:24:26.104Z,19.80
2018-07-24T05:26:52.038Z,20.00
2018-07-24T05:29:17.980Z,20.00
2018-07-24T05:31:43.939Z,20.10
2018-07-24T05:34:09.932Z,20.20
2018-07-24T05:36:35.864Z,20.20
2018-07-24T05:39:01.796Z,20.40
2018-07-24T05:41:27.781Z,20.40
2018-07-24T05:43:54.498Z,20.60
2018-07-24T05:46:20.487Z,20.50
2018-07-24T05:48:46.498Z,20.70
2018-07-24T05:51:12.459Z,20.80
2018-07-24T05:53:38.418Z,20.80
2018-07-24T05:56:05.103Z,20.90
2018-07-24T05:58:31.058Z,20.90
2018-07-24T06:00:57.006Z,21.00
2018-07-24T06:03:23.713Z,21.30
2018-07-24T06:05:49.647Z,21.30
2018-07-24T06:08:15.607Z,21.40
2018-07-24T06:10:41.571Z,21.50
2018-07-24T06:13:07.572Z,21.60
2018-07-24T06:15:33.536Z,21.80
2018-07-24T06:17:59.561Z,21.90
2018-07-24T06:20:25.512Z,22.10
2018-07-24T06:22:51.447Z,22.20
2018-07-24T06:25:17.421Z,22.30
2018-07-24T06:27:43.366Z,22.40
2018-07-24T06:30:10.061Z,22.70
2018-07-24T06:32:36.001Z,22.70
2018-07-24T06:35:02.035Z,22.90
2018-07-24T06:37:27.917Z,23.10
2018-07-24T06:39:53.882Z,23.30
2018-07-24T06:42:20.630Z,25.00
2018-07-24T06:44:47.366Z,26.30
2018-07-24T06:47:13.302Z,26.20
2018-07-24T06:49:39.258Z,27.80
2018-07-24T06:52:05.209Z,28.50
2018-07-24T06:54:31.171Z,29.10
2018-07-24T06:56:57.138Z,29.70
2018-07-24T06:59:23.089Z,30.20
2018-07-24T07:01:49.039Z,30.30
2018-07-24T07:04:15.747Z,31.80
2018-07-24T07:06:41.714Z,31.70
2018-07-24T07:09:07.690Z,32.00
2018-07-24T07:11:33.661Z,31.70
2018-07-24T07:13:59.652Z,31.70
2018-07-24T07:16:26.331Z,32.70
2018-07-24T07:18:52.302Z,32.70
2018-07-24T07:21:18.237Z,33.40
2018-07-24T07:23:44.937Z,34.40
2018-07-24T07:26:10.972Z,34.40
2018-07-24T07:28:36.883Z,34.50
2018-07-24T07:31:02.868Z,34.60
2018-07-24T07:33:28.815Z,35.00
2018-07-24T07:35:54.766Z,35.30
2018-07-24T07:38:20.717Z,35.50
2018-07-24T07:40:48.093Z,36.20
2018-07-24T07:43:14.058Z,36.10
2018-07-24T07:45:39.989Z,36.30
2018-07-24T07:48:05.935Z,36.20
2018-07-24T07:50:31.862Z,36.70
2018-07-24T07:52:58.568Z,37.20
2018-07-24T07:55:24.524Z,37.20
2018-07-24T07:57:51.254Z,37.20
2018-07-24T08:00:17.209Z,37.20
2018-07-24T08:02:43.895Z,37.40
2018-07-24T08:05:09.867Z,37.40
2018-07-24T08:07:35.809Z,37.70
2018-07-24T08:10:01.790Z,38.20
2018-07-24T08:12:28.501Z,38.40
2018-07-24T08:14:54.473Z,38.40
2018-07-24T08:17:20.466Z,38.90
2018-07-24T08:19:46.450Z,39.00
2018-07-24T08:22:12.436Z,39.20
2018-07-24T08:24:39.108Z,39.60
2018-07-24T08:27:05.086Z,39.60
2018-07-24T08:29:31.774Z,39.70
2018-07-24T08:31:58.472Z,39.70
2018-07-24T08:34:25.176Z,39.80
2018-07-24T08:36:51.134Z,39.80
2018-07-24T08:39:17.796Z,40.10
2018-07-24T08:41:43.779Z,40.00
2018-07-24T08:44:09.740Z,40.50
2018-07-24T08:46:35.682Z,40.30
2018-07-24T08:49:01.771Z,40.50
2018-07-24T08:51:28.577Z,40.50
2018-07-24T08:53:55.086Z,40.50
2018-07-24T08:56:21.292Z,40.20
2018-07-24T08:58:47.378Z,40.60
2018-07-24T09:01:14.086Z,40.70
2018-07-24T09:03:40.096Z,40.70
2018-07-24T09:06:06.050Z,40.40
2018-07-24T09:08:32.032Z,40.20
2018-07-24T09:10:57.982Z,40.30
2018-07-24T09:13:24.167Z,40.90
2018-07-24T09:15:51.484Z,41.00
2018-07-24T09:18:18.345Z,41.40
2018-07-24T09:20:44.291Z,41.40
2018-07-24T09:23:10.243Z,41.50
2018-07-24T09:25:36.212Z,41.90
2018-07-24T09:28:02.151Z,41.40
2018-07-24T09:30:28.842Z,41.20
2018-07-24T09:32:54.791Z,41.10
2018-07-24T09:35:20.761Z,41.30
2018-07-24T09:37:46.704Z,40.90
2018-07-24T09:40:12.714Z,40.70
2018-07-24T09:42:38.650Z,40.50
2018-07-24T09:45:04.590Z,40.60
2018-07-24T09:47:30.573Z,40.80
2018-07-24T09:49:56.544Z,40.80
2018-07-24T09:52:22.509Z,40.80
2018-07-24T09:54:48.426Z,40.50
2018-07-24T09:57:15.157Z,40.40
2018-07-24T09:59:41.171Z,40.40
2018-07-24T10:02:07.892Z,40.40
2018-07-24T10:04:33.896Z,40.40
2018-07-24T10:06:59.891Z,40.20
2018-07-24T10:09:25.842Z,40.40
2018-07-24T10:11:51.759Z,39.60
2018-07-24T10:14:17.732Z,38.60
2018-07-24T10:16:44.491Z,37.30
2018-07-24T10:19:10.510Z,37.20
2018-07-24T10:21:36.481Z,36.70
2018-07-24T10:24:02.438Z,36.30
2018-07-24T10:26:29.128Z,36.20
2018-07-24T10:28:55.215Z,36.10
2018-07-24T10:31:21.173Z,36.20
2018-07-24T10:33:47.107Z,36.00
2018-07-24T10:36:13.083Z,35.50
2018-07-24T10:38:39.023Z,35.40
2018-07-24T10:41:05.001Z,35.30
2018-07-24T10:43:30.943Z,35.20
2018-07-24T10:45:57.667Z,35.40
2018-07-24T10:48:23.600Z,35.40
2018-07-24T10:50:50.336Z,34.50
2018-07-24T10:53:16.278Z,34.50
2018-07-24T10:55:42.255Z,34.60
2018-07-24T10:58:08.220Z,34.70
2018-07-24T11:00:34.172Z,35.20
2018-07-24T11:03:00.129Z,35.00
2018-07-24T11:05:26.079Z,34.60
2018-07-24T11:07:52.777Z,34.20
2018-07-24T11:10:18.717Z,34.20
2018-07-24T11:12:44.674Z,33.90
2018-07-24T11:15:11.377Z,34.10
2018-07-24T11:17:37.314Z,34.10
2018-07-24T11:20:03.282Z,34.00
2018-07-24T11:22:29.346Z,34.10
2018-07-24T11:24:55.198Z,34.30
2018-07-24T11:27:21.908Z,34.30
2018-07-24T11:29:47.919Z,34.20
2018-07-24T11:32:13.862Z,34.10
2018-07-24T11:34:40.402Z,34.00
2018-07-24T11:37:07.117Z,34.60
2018-07-24T11:39:33.057Z,34.60
2018-07-24T11:41:59.011Z,34.60
2018-07-24T11:44:24.974Z,34.90
2018-07-24T11:46:50.953Z,35.20
2018-07-24T11:49:17.625Z,35.50
2018-07-24T11:51:43.594Z,35.50
2018-07-24T11:54:09.573Z,35.60
2018-07-24T11:56:35.509Z,35.70
2018-07-24T11:59:01.496Z,35.60
2018-07-24T12:01:27.436Z,35.70
2018-07-24T12:03:53.403Z,35.70
2018-07-24T12:06:19.371Z,35.70
2018-07-24T12:08:45.347Z,35.70
2018-07-24T12:11:11.297Z,35.30
2018-07-24T12:13:37.971Z,35.10
2018-07-24T12:16:03.921Z,35.10
2018-07-24T12:18:30.647Z,34.80
2018-07-24T12:20:56.600Z,34.80
2018-07-24T12:23:22.559Z,35.00
2018-07-24T12:25:48.505Z,35.00
2018-07-24T12:28:14.489Z,35.00
2018-07-24T12:30:40.436Z,35.10
2018-07-24T12:33:06.400Z,35.30
2018-07-24T12:35:32.362Z,35.30
2018-07-24T12:37:58.306Z,35.20
2018-07-24T12:40:24.265Z,35.20
2018-07-24T12:42:50.229Z,35.00
2018-07-24T12:45:16.203Z,34.70
2018-07-24T12:47:42.133Z,34.70
2018-07-24T12:50:08.119Z,34.80
2018-07-24T12:52:34.096Z,34.90
2018-07-24T12:55:00.080Z,34.60
2018-07-24T12:57:26.039Z,34.30
2018-07-24T12:59:51.977Z,33.60
2018-07-24T13:02:18.703Z,33.70
2018-07-24T13:04:44.646Z,33.70
2018-07-24T13:07:10.611Z,33.80
2018-07-24T13:09:36.581Z,33.80
2018-07-24T13:12:03.282Z,33.80
2018-07-24T13:14:29.234Z,33.70
2018-07-24T13:16:55.206Z,33.60
2018-07-24T13:19:21.165Z,33.70
2018-07-24T13:21:47.146Z,33.70
2018-07-24T13:24:13.081Z,33.70
2018-07-24T13:26:39.011Z,33.60
2018-07-24T13:29:04.994Z,33.60
2018-07-24T13:31:31.675Z,33.20
2018-07-24T13:33:57.659Z,33.20
2018-07-24T13:36:23.622Z,32.90
2018-07-24T13:38:49.600Z,32.70
2018-07-24T13:41:16.291Z,32.80
2018-07-24T13:43:42.269Z,32.80
2018-07-24T13:46:08.310Z,32.90
2018-07-24T13:48:34.222Z,32.90
2018-07-24T13:51:00.186Z,33.20
2018-07-24T13:53:26.137Z,33.30
2018-07-24T13:55:52.852Z,33.40
2018-07-24T13:58:18.787Z,33.30
2018-07-24T14:00:45.500Z,33.60
2018-07-24T14:03:11.420Z,33.60
2018-07-24T14:05:37.416Z,33.70
2018-07-24T14:08:03.360Z,33.20
2018-07-24T14:10:29.334Z,33.20
2018-07-24T14:12:56.022Z,33.00
2018-07-24T14:15:22.008Z,33.00
2018-07-24T14:17:48.002Z,32.90
2018-07-24T14:20:13.940Z,32.80
2018-07-24T14:22:40.681Z,32.40
2018-07-24T14:25:06.599Z,32.40
2018-07-24T14:27:33.310Z,32.40
2018-07-24T14:29:59.257Z,32.40
2018-07-24T14:32:25.235Z,32.40
2018-07-24T14:34:51.184Z,32.40
2018-07-24T14:37:17.132Z,32.50
2018-07-24T14:39:50.015Z,32.40
2018-07-24T14:42:16.697Z,32.30
2018-07-24T14:44:42.651Z,32.30
2018-07-24T14:47:08.598Z,32.20
2018-07-24T14:49:35.303Z,32.00
2018-07-24T14:52:01.972Z,32.00
2018-07-24T14:54:27.931Z,32.00
2018-07-24T14:56:53.865Z,32.10
2018-07-24T14:59:19.804Z,32.20
2018-07-24T15:01:45.764Z,32.20
2018-07-24T15:04:11.710Z,32.20
2018-07-24T15:06:37.712Z,32.40
2018-07-24T15:09:03.634Z,32.60
2018-07-24T15:11:29.592Z,32.60
2018-07-24T15:13:56.003Z,32.60
2018-07-24T15:16:21.971Z,32.60
2018-07-24T15:18:47.932Z,32.80
2018-07-24T15:21:14.636Z,32.80
2018-07-24T15:23:40.648Z,32.80
2018-07-24T15:26:06.618Z,33.00
2018-07-24T15:28:32.591Z,33.10
2018-07-24T15:30:58.567Z,33.20
2018-07-24T15:33:24.551Z,33.20
2018-07-24T15:35:50.503Z,33.10
2018-07-24T15:38:16.442Z,33.10
2018-07-24T15:40:43.127Z,32.90
2018-07-24T15:43:09.056Z,32.80
2018-07-24T15:45:35.022Z,32.70
2018-07-24T15:48:01.728Z,32.60
2018-07-24T15:50:27.693Z,32.60
2018-07-24T15:52:54.386Z,32.60
2018-07-24T15:55:20.347Z,32.60
2018-07-24T15:57:47.038Z,32.50
2018-07-24T16:00:12.975Z,32.50
2018-07-24T16:02:38.945Z,32.40
2018-07-24T16:05:04.912Z,32.40
2018-07-24T16:07:30.861Z,32.40
2018-07-24T16:09:56.796Z,32.40
2018-07-24T16:12:22.757Z,32.30
2018-07-24T16:14:48.680Z,32.30
2018-07-24T16:17:14.616Z,32.20
2018-07-24T16:19:40.568Z,32.20
2018-07-24T16:22:06.708Z,32.10
2018-07-24T16:24:32.718Z,32.00
2018-07-24T16:26:58.712Z,32.00
2018-07-24T16:29:24.669Z,32.00
2018-07-24T16:31:50.607Z,32.00
2018-07-24T16:34:17.346Z,31.70
2018-07-24T16:36:44.012Z,31.40
2018-07-24T16:39:09.939Z,31.40
2018-07-24T16:41:35.878Z,31.30
2018-07-24T16:44:01.890Z,31.20
2018-07-24T16:46:28.597Z,31.00
2018-07-24T16:48:55.284Z,30.90
2018-07-24T16:51:21.239Z,30.90
2018-07-24T16:53:47.185Z,30.90
2018-07-24T16:56:13.887Z,30.80
2018-07-24T16:58:39.869Z,30.80
2018-07-24T17:01:05.822Z,30.80
2018-07-24T17:03:32.528Z,30.70
2018-07-24T17:05:59.193Z,30.70
2018-07-24T17:08:25.200Z,30.60
2018-07-24T17:10:51.850Z,30.60
2018-07-24T17:13:17.875Z,30.60
2018-07-24T17:15:43.904Z,30.50
2018-07-24T17:18:09.915Z,30.40
2018-07-24T17:20:36.614Z,30.40
2018-07-24T17:23:03.299Z,30.40
2018-07-24T17:25:30.012Z,30.30
2018-07-24T17:27:56.706Z,30.30
2018-07-24T17:30:22.678Z,30.30
2018-07-24T17:32:48.607Z,30.20
2018-07-24T17:35:14.581Z,30.20
2018-07-24T17:37:40.546Z,30.10
2018-07-24T17:40:06.495Z,30.00
2018-07-24T17:42:32.466Z,30.00
2018-07-24T17:44:59.145Z,29.90
2018-07-24T17:47:25.136Z,29.90
2018-07-24T17:49:51.815Z,29.80
2018-07-24T17:52:17.766Z,29.80
2018-07-24T17:54:43.734Z,29.80
2018-07-24T17:57:09.760Z,29.70
2018-07-24T17:59:35.761Z,29.60
2018-07-24T18:02:02.461Z,29.50
2018-07-24T18:04:28.418Z,29.50
2018-07-24T18:06:54.357Z,29.40
2018-07-24T18:09:21.069Z,29.20
2018-07-24T18:11:47.013Z,29.20
2018-07-24T18:14:13.705Z,29.20
2018-07-24T18:16:39.694Z,29.20
2018-07-24T18:19:06.371Z,29.00
2018-07-24T18:21:32.346Z,29.00
2018-07-24T18:23:59.017Z,28.90
2018-07-24T18:26:24.984Z,28.80
2018-07-24T18:28:50.919Z,28.80
2018-07-24T18:31:17.622Z,28.60
2018-07-24T18:33:43.545Z,28.60
2018-07-24T18:36:09.510Z,28.60
2018-07-24T18:38:36.259Z,28.50
2018-07-24T18:41:02.164Z,28.50
2018-07-24T18:43:28.140Z,28.40
2018-07-24T18:45:54.067Z,28.30
2018-07-24T18:48:20.044Z,28.20
2018-07-24T18:50:46.769Z,28.20
2018-07-24T18:53:13.534Z,28.20
2018-07-24T18:55:39.498Z,28.10
2018-07-24T18:58:05.591Z,28.10
2018-07-24T19:00:31.670Z,28.00
2018-07-24T19:02:57.632Z,27.90
2018-07-24T19:05:24.373Z,27.80
2018-07-24T19:07:50.378Z,27.80
2018-07-24T19:10:17.244Z,27.60
2018-07-24T19:12:43.416Z,27.60
2018-07-24T19:15:10.303Z,27.50
2018-07-24T19:17:36.551Z,27.40
2018-07-24T19:20:02.584Z,27.40
2018-07-24T19:22:28.565Z,27.30
2018-07-24T19:24:54.661Z,27.30
2018-07-24T19:27:20.891Z,27.30
2018-07-24T19:29:47.874Z,27.20
2018-07-24T19:32:14.129Z,27.20
2018-07-24T19:34:40.320Z,27.10
2018-07-24T19:37:06.424Z,27.00
2018-07-24T19:39:32.480Z,27.00
2018-07-24T19:41:58.588Z,26.90
2018-07-24T19:44:25.507Z,26.70
2018-07-24T19:46:51.723Z,26.70
2018-07-24T19:49:18.025Z,26.70
2018-07-24T19:51:44.233Z,26.70
2018-07-24T19:54:10.356Z,26.70
2018-07-24T19:56:36.563Z,26.60
2018-07-24T19:59:03.437Z,26.30
2018-07-24T20:01:30.211Z,26.20
2018-07-24T20:03:56.305Z,26.20
2018-07-24T20:06:23.162Z,26.00
2018-07-24T20:08:49.232Z,25.90
2018-07-24T20:11:15.280Z,25.90
2018-07-24T20:13:41.476Z,25.80
2018-07-24T20:16:07.733Z,25.70
2018-07-24T20:18:33.988Z,25.60
2018-07-24T20:21:00.180Z,25.60
2018-07-24T20:23:26.216Z,25.50
2018-07-24T20:25:52.221Z,25.40
2018-07-24T20:28:18.318Z,25.30
2018-07-24T20:30:44.369Z,25.30
2018-07-24T20:33:10.344Z,25.20
2018-07-24T20:35:37.082Z,25.00
2018-07-24T20:38:03.927Z,24.90
2018-07-24T20:40:29.987Z,24.80
2018-07-24T20:42:55.987Z,25.00
2018-07-24T20:45:21.952Z,25.00
2018-07-24T20:47:47.979Z,24.90
2018-07-24T20:50:14.024Z,24.90
2018-07-24T20:52:40.019Z,24.90
2018-07-24T20:55:06.051Z,24.80
2018-07-24T20:57:32.099Z,24.80
2018-07-24T20:59:58.051Z,24.70
2018-07-24T21:02:24.736Z,24.70
2018-07-24T21:04:50.713Z,24.70
2018-07-24T21:07:17.396Z,24.70
2018-07-24T21:09:43.450Z,24.60
2018-07-24T21:12:09.459Z,24.60
2018-07-24T21:14:35.507Z,24.60
2018-07-24T21:17:02.235Z,24.50
2018-07-24T21:19:28.235Z,24.50
2018-07-24T21:21:54.220Z,24.40
2018-07-24T21:24:20.165Z,24.40
2018-07-24T21:26:46.175Z,24.40
2018-07-24T21:29:12.733Z,24.30
2018-07-24T21:31:38.692Z,24.30
2018-07-24T21:34:04.681Z,24.20
2018-07-24T21:36:30.635Z,24.20
2018-07-24T21:38:57.525Z,24.10
2018-07-24T21:41:23.518Z,24.00
2018-07-24T21:43:50.235Z,23.90
2018-07-24T21:46:16.199Z,23.80
2018-07-24T21:48:42.148Z,23.80
2018-07-24T21:51:08.105Z,23.70
2018-07-24T21:53:34.227Z,23.80
2018-07-24T21:56:00.228Z,23.70
2018-07-24T21:58:26.177Z,23.60
2018-07-24T22:00:52.182Z,23.50
2018-07-24T22:03:18.108Z,23.50
2018-07-24T22:05:44.084Z,23.40
2018-07-24T22:08:10.789Z,23.30
2018-07-24T22:10:36.759Z,23.30
2018-07-24T22:13:02.723Z,23.30
2018-07-24T22:15:29.421Z,23.30
2018-07-24T22:17:55.420Z,23.20
2018-07-24T22:20:21.381Z,23.20
2018-07-24T22:22:47.378Z,23.20
2018-07-24T22:25:13.366Z,23.10
2018-07-24T22:27:39.314Z,23.10
2018-07-24T22:30:05.318Z,22.90
2018-07-24T22:32:31.363Z,22.90
2018-07-24T22:34:57.362Z,22.80
2018-07-24T22:37:23.308Z,22.80
2018-07-24T22:39:49.294Z,22.70
2018-07-24T22:42:15.223Z,22.70
2018-07-24T22:44:41.192Z,22.70
2018-07-24T22:47:07.152Z,22.60
2018-07-24T22:49:33.095Z,22.50
2018-07-24T22:51:59.029Z,22.50
2018-07-24T22:54:25.707Z,22.50
2018-07-24T22:56:51.685Z,22.40
2018-07-24T22:59:18.365Z,22.30
2018-07-24T23:01:44.324Z,22.30
2018-07-24T23:04:11.039Z,22.40
2018-07-24T23:06:37.017Z,22.40
2018-07-24T23:09:02.953Z,22.40
2018-07-24T23:11:29.658Z,22.40
2018-07-24T23:13:55.644Z,22.30
2018-07-24T23:16:21.567Z,22.30
2018-07-24T23:18:47.515Z,22.30
2018-07-24T23:21:13.463Z,22.30
2018-07-24T23:23:39.438Z,22.70
2018-07-24T23:26:05.384Z,22.30
2018-07-24T23:28:31.365Z,22.20
2018-07-24T23:30:57.310Z,22.20
2018-07-24T23:33:23.257Z,22.20
2018-07-24T23:35:49.241Z,22.20
2018-07-24T23:38:15.171Z,22.10
2018-07-24T23:40:41.150Z,22.10
2018-07-24T23:43:07.080Z,22.00
2018-07-24T23:45:33.801Z,22.00
2018-07-24T23:47:59.756Z,22.00
2018-07-24T23:50:25.698Z,21.90
2018-07-24T23:52:51.667Z,21.90
2018-07-24T23:55:17.614Z,21.90
2018-07-24T23:57:44.304Z,21.90
